sensor_id;sensor_type;location;lat;lon;timestamp;P1;durP1;ratioP1;P2;durP2;ratioP2
38717;SDS011;24468;52.128;9.278;2023-05-10T00:01:55;5.75;;;4.40;;
38717;SDS011;24468;52.128;9.278;2023-05-10T00:04:21;4.35;;;3.92;;
38717;SDS011;24468;52.128;9.278;2023-05-10T00:06:46;5.50;;;4.20;;
38717;SDS011;24468;52.128;9.278;2023-05-10T00:09:12;6.28;;;4.03;;
38717;SDS011;24468;52.128;9.278;2023-05-10T00:11:38;5.55;;;4.53;;
38717;SDS011;24468;52.128;9.278;2023-05-10T00:14:04;10.40;;;4.10;;
38717;SDS011;24468;52.128;9.278;2023-05-10T00:16:29;5.93;;;4.32;;
38717;SDS011;24468;52.128;9.278;2023-05-10T00:18:55;4.53;;;3.88;;
38717;SDS011;24468;52.128;9.278;2023-05-10T00:21:20;7.30;;;4.20;;
38717;SDS011;24468;52.128;9.278;2023-05-10T00:23:46;4.43;;;3.58;;
38717;SDS011;24468;52.128;9.278;2023-05-10T00:26:11;3.63;;;3.22;;
38717;SDS011;24468;52.128;9.278;2023-05-10T00:28:37;4.13;;;3.40;;
38717;SDS011;24468;52.128;9.278;2023-05-10T00:31:02;5.38;;;3.63;;
38717;SDS011;24468;52.128;9.278;2023-05-10T00:33:28;7.72;;;3.90;;
38717;SDS011;24468;52.128;9.278;2023-05-10T00:35:53;5.47;;;4.22;;
38717;SDS011;24468;52.128;9.278;2023-05-10T00:38:19;4.00;;;3.67;;
38717;SDS011;24468;52.128;9.278;2023-05-10T00:40:44;6.35;;;3.80;;
38717;SDS011;24468;52.128;9.278;2023-05-10T00:43:10;4.60;;;3.50;;
38717;SDS011;24468;52.128;9.278;2023-05-10T00:45:36;4.53;;;3.78;;
38717;SDS011;24468;52.128;9.278;2023-05-10T00:48:02;4.75;;;3.63;;
38717;SDS011;24468;52.128;9.278;2023-05-10T00:50:29;4.20;;;3.80;;
38717;SDS011;24468;52.128;9.278;2023-05-10T00:52:57;3.70;;;3.40;;
38717;SDS011;24468;52.128;9.278;2023-05-10T00:55:25;4.68;;;3.85;;
38717;SDS011;24468;52.128;9.278;2023-05-10T00:57:51;4.85;;;3.67;;
38717;SDS011;24468;52.128;9.278;2023-05-10T01:00:18;6.95;;;3.75;;
38717;SDS011;24468;52.128;9.278;2023-05-10T01:02:44;3.83;;;3.20;;
38717;SDS011;24468;52.128;9.278;2023-05-10T01:05:11;4.80;;;3.50;;
38717;SDS011;24468;52.128;9.278;2023-05-10T01:07:37;5.28;;;3.58;;
38717;SDS011;24468;52.128;9.278;2023-05-10T01:10:02;4.05;;;3.35;;
38717;SDS011;24468;52.128;9.278;2023-05-10T01:12:28;3.65;;;3.35;;
38717;SDS011;24468;52.128;9.278;2023-05-10T01:14:55;4.00;;;3.63;;
38717;SDS011;24468;52.128;9.278;2023-05-10T01:17:20;4.72;;;3.17;;
38717;SDS011;24468;52.128;9.278;2023-05-10T01:19:47;6.97;;;3.60;;
38717;SDS011;24468;52.128;9.278;2023-05-10T01:24:48;5.82;;;4.40;;
38717;SDS011;24468;52.128;9.278;2023-05-10T01:30:35;4.35;;;3.83;;
38717;SDS011;24468;52.128;9.278;2023-05-10T01:33:23;5.00;;;3.25;;
38717;SDS011;24468;52.128;9.278;2023-05-10T01:41:19;6.30;;;4.90;;
38717;SDS011;24468;52.128;9.278;2023-05-10T01:46:41;9.45;;;4.90;;
38717;SDS011;24468;52.128;9.278;2023-05-10T01:49:08;5.60;;;5.07;;
38717;SDS011;24468;52.128;9.278;2023-05-10T01:51:47;5.50;;;5.00;;
38717;SDS011;24468;52.128;9.278;2023-05-10T01:54:17;5.78;;;5.28;;
38717;SDS011;24468;52.128;9.278;2023-05-10T01:56:47;5.15;;;4.63;;
38717;SDS011;24468;52.128;9.278;2023-05-10T01:59:20;5.75;;;3.50;;
38717;SDS011;24468;52.128;9.278;2023-05-10T02:01:47;5.82;;;4.07;;
38717;SDS011;24468;52.128;9.278;2023-05-10T02:04:15;3.90;;;3.50;;
38717;SDS011;24468;52.128;9.278;2023-05-10T02:06:43;4.45;;;3.20;;
38717;SDS011;24468;52.128;9.278;2023-05-10T02:09:10;3.90;;;3.10;;
38717;SDS011;24468;52.128;9.278;2023-05-10T02:11:37;4.32;;;2.75;;
38717;SDS011;24468;52.128;9.278;2023-05-10T02:14:05;8.50;;;3.47;;
38717;SDS011;24468;52.128;9.278;2023-05-10T02:16:34;5.20;;;3.67;;
38717;SDS011;24468;52.128;9.278;2023-05-10T02:19:01;4.68;;;3.45;;
38717;SDS011;24468;52.128;9.278;2023-05-10T02:21:28;4.32;;;3.53;;
38717;SDS011;24468;52.128;9.278;2023-05-10T02:23:55;4.80;;;3.30;;
38717;SDS011;24468;52.128;9.278;2023-05-10T02:26:23;5.43;;;2.92;;
38717;SDS011;24468;52.128;9.278;2023-05-10T02:28:51;5.30;;;3.33;;
38717;SDS011;24468;52.128;9.278;2023-05-10T02:31:18;5.50;;;3.42;;
38717;SDS011;24468;52.128;9.278;2023-05-10T02:33:45;4.13;;;3.00;;
38717;SDS011;24468;52.128;9.278;2023-05-10T02:36:11;5.43;;;2.83;;
38717;SDS011;24468;52.128;9.278;2023-05-10T02:38:38;5.55;;;3.17;;
38717;SDS011;24468;52.128;9.278;2023-05-10T02:41:04;3.28;;;2.97;;
38717;SDS011;24468;52.128;9.278;2023-05-10T02:43:33;2.90;;;2.35;;
38717;SDS011;24468;52.128;9.278;2023-05-10T02:46:00;4.32;;;2.60;;
38717;SDS011;24468;52.128;9.278;2023-05-10T02:48:26;6.45;;;3.88;;
38717;SDS011;24468;52.128;9.278;2023-05-10T02:50:52;3.45;;;2.90;;
38717;SDS011;24468;52.128;9.278;2023-05-10T02:53:32;4.50;;;2.97;;
38717;SDS011;24468;52.128;9.278;2023-05-10T02:56:01;3.70;;;3.17;;
38717;SDS011;24468;52.128;9.278;2023-05-10T02:58:36;2.67;;;2.47;;
38717;SDS011;24468;52.128;9.278;2023-05-10T03:01:02;3.72;;;2.40;;
38717;SDS011;24468;52.128;9.278;2023-05-10T03:03:27;5.75;;;2.97;;
38717;SDS011;24468;52.128;9.278;2023-05-10T03:05:53;4.65;;;2.85;;
38717;SDS011;24468;52.128;9.278;2023-05-10T03:08:20;3.50;;;3.13;;
38717;SDS011;24468;52.128;9.278;2023-05-10T03:10:50;4.50;;;3.70;;
38717;SDS011;24468;52.128;9.278;2023-05-10T03:13:29;5.30;;;3.38;;
38717;SDS011;24468;52.128;9.278;2023-05-10T03:16:06;6.15;;;3.38;;
38717;SDS011;24468;52.128;9.278;2023-05-10T03:18:41;7.65;;;3.92;;
38717;SDS011;24468;52.128;9.278;2023-05-10T03:21:19;6.10;;;3.08;;
38717;SDS011;24468;52.128;9.278;2023-05-10T03:23:59;4.32;;;3.92;;
38717;SDS011;24468;52.128;9.278;2023-05-10T03:26:32;5.28;;;4.25;;
38717;SDS011;24468;52.128;9.278;2023-05-10T03:28:59;5.13;;;4.20;;
38717;SDS011;24468;52.128;9.278;2023-05-10T03:31:25;9.27;;;4.50;;
38717;SDS011;24468;52.128;9.278;2023-05-10T03:33:52;4.95;;;3.58;;
38717;SDS011;24468;52.128;9.278;2023-05-10T03:36:18;4.45;;;3.15;;
38717;SDS011;24468;52.128;9.278;2023-05-10T03:38:44;6.82;;;3.50;;
38717;SDS011;24468;52.128;9.278;2023-05-10T03:41:09;4.30;;;3.50;;
38717;SDS011;24468;52.128;9.278;2023-05-10T03:43:35;5.22;;;3.50;;
38717;SDS011;24468;52.128;9.278;2023-05-10T03:46:02;7.90;;;2.90;;
38717;SDS011;24468;52.128;9.278;2023-05-10T03:48:28;4.30;;;3.85;;
38717;SDS011;24468;52.128;9.278;2023-05-10T03:50:54;5.13;;;3.40;;
38717;SDS011;24468;52.128;9.278;2023-05-10T03:53:20;3.42;;;3.13;;
38717;SDS011;24468;52.128;9.278;2023-05-10T03:55:45;4.97;;;3.50;;
38717;SDS011;24468;52.128;9.278;2023-05-10T03:58:11;5.32;;;3.25;;
38717;SDS011;24468;52.128;9.278;2023-05-10T04:00:37;4.57;;;3.22;;
38717;SDS011;24468;52.128;9.278;2023-05-10T04:03:08;4.13;;;3.50;;
38717;SDS011;24468;52.128;9.278;2023-05-10T04:05:37;5.82;;;4.10;;
38717;SDS011;24468;52.128;9.278;2023-05-10T04:08:03;4.50;;;3.17;;
38717;SDS011;24468;52.128;9.278;2023-05-10T04:10:29;4.07;;;3.75;;
38717;SDS011;24468;52.128;9.278;2023-05-10T04:12:55;4.13;;;3.70;;
38717;SDS011;24468;52.128;9.278;2023-05-10T04:15:22;3.88;;;3.53;;
38717;SDS011;24468;52.128;9.278;2023-05-10T04:17:48;6.53;;;4.10;;
38717;SDS011;24468;52.128;9.278;2023-05-10T04:20:14;5.47;;;4.03;;
38717;SDS011;24468;52.128;9.278;2023-05-10T04:22:39;7.10;;;3.83;;
38717;SDS011;24468;52.128;9.278;2023-05-10T04:25:05;5.57;;;3.90;;
38717;SDS011;24468;52.128;9.278;2023-05-10T04:27:32;4.43;;;3.63;;
38717;SDS011;24468;52.128;9.278;2023-05-10T04:29:57;3.90;;;3.28;;
38717;SDS011;24468;52.128;9.278;2023-05-10T04:32:23;6.07;;;3.97;;
38717;SDS011;24468;52.128;9.278;2023-05-10T04:34:49;4.78;;;3.55;;
38717;SDS011;24468;52.128;9.278;2023-05-10T04:37:16;7.35;;;3.90;;
38717;SDS011;24468;52.128;9.278;2023-05-10T04:39:42;4.88;;;3.80;;
38717;SDS011;24468;52.128;9.278;2023-05-10T04:42:07;6.43;;;4.25;;
38717;SDS011;24468;52.128;9.278;2023-05-10T04:44:33;5.43;;;3.67;;
38717;SDS011;24468;52.128;9.278;2023-05-10T04:46:58;5.45;;;4.10;;
38717;SDS011;24468;52.128;9.278;2023-05-10T04:49:24;4.78;;;3.83;;
38717;SDS011;24468;52.128;9.278;2023-05-10T04:51:49;5.68;;;3.83;;
38717;SDS011;24468;52.128;9.278;2023-05-10T04:54:15;9.43;;;4.65;;
38717;SDS011;24468;52.128;9.278;2023-05-10T04:56:40;5.95;;;3.83;;
38717;SDS011;24468;52.128;9.278;2023-05-10T04:59:06;5.25;;;4.07;;
38717;SDS011;24468;52.128;9.278;2023-05-10T05:01:32;5.68;;;4.13;;
38717;SDS011;24468;52.128;9.278;2023-05-10T05:03:57;4.32;;;3.83;;
38717;SDS011;24468;52.128;9.278;2023-05-10T05:06:24;5.65;;;4.25;;
38717;SDS011;24468;52.128;9.278;2023-05-10T05:08:50;6.85;;;4.70;;
38717;SDS011;24468;52.128;9.278;2023-05-10T05:11:16;5.13;;;4.00;;
38717;SDS011;24468;52.128;9.278;2023-05-10T05:13:42;6.50;;;4.32;;
38717;SDS011;24468;52.128;9.278;2023-05-10T05:16:08;7.68;;;4.20;;
38717;SDS011;24468;52.128;9.278;2023-05-10T05:18:33;5.07;;;4.57;;
38717;SDS011;24468;52.128;9.278;2023-05-10T05:20:59;5.20;;;4.53;;
38717;SDS011;24468;52.128;9.278;2023-05-10T05:23:25;6.45;;;4.25;;
38717;SDS011;24468;52.128;9.278;2023-05-10T05:25:51;6.45;;;3.75;;
38717;SDS011;24468;52.128;9.278;2023-05-10T05:28:18;6.47;;;4.32;;
38717;SDS011;24468;52.128;9.278;2023-05-10T05:30:45;6.97;;;3.88;;
38717;SDS011;24468;52.128;9.278;2023-05-10T05:33:11;6.07;;;4.50;;
38717;SDS011;24468;52.128;9.278;2023-05-10T05:35:38;5.75;;;4.07;;
38717;SDS011;24468;52.128;9.278;2023-05-10T05:38:04;7.25;;;4.60;;
38717;SDS011;24468;52.128;9.278;2023-05-10T05:40:29;6.95;;;4.10;;
38717;SDS011;24468;52.128;9.278;2023-05-10T05:42:55;6.53;;;4.32;;
38717;SDS011;24468;52.128;9.278;2023-05-10T05:45:20;5.65;;;4.70;;
38717;SDS011;24468;52.128;9.278;2023-05-10T05:47:46;5.03;;;4.18;;
38717;SDS011;24468;52.128;9.278;2023-05-10T05:50:12;5.10;;;4.60;;
38717;SDS011;24468;52.128;9.278;2023-05-10T05:52:37;8.50;;;4.72;;
38717;SDS011;24468;52.128;9.278;2023-05-10T05:55:03;5.30;;;4.45;;
38717;SDS011;24468;52.128;9.278;2023-05-10T05:57:29;5.72;;;4.03;;
38717;SDS011;24468;52.128;9.278;2023-05-10T05:59:54;7.82;;;4.75;;
38717;SDS011;24468;52.128;9.278;2023-05-10T06:02:20;4.68;;;3.90;;
38717;SDS011;24468;52.128;9.278;2023-05-10T06:04:45;4.88;;;3.72;;
38717;SDS011;24468;52.128;9.278;2023-05-10T06:07:11;5.68;;;4.00;;
38717;SDS011;24468;52.128;9.278;2023-05-10T06:09:37;5.53;;;4.40;;
38717;SDS011;24468;52.128;9.278;2023-05-10T06:12:02;4.22;;;3.83;;
38717;SDS011;24468;52.128;9.278;2023-05-10T06:14:28;6.93;;;4.45;;
38717;SDS011;24468;52.128;9.278;2023-05-10T06:16:53;8.60;;;4.60;;
38717;SDS011;24468;52.128;9.278;2023-05-10T06:19:19;4.45;;;3.95;;
38717;SDS011;24468;52.128;9.278;2023-05-10T06:21:44;6.43;;;2.88;;
38717;SDS011;24468;52.128;9.278;2023-05-10T06:24:10;2.08;;;1.55;;
38717;SDS011;24468;52.128;9.278;2023-05-10T06:26:35;2.22;;;1.40;;
38717;SDS011;24468;52.128;9.278;2023-05-10T06:29:01;1.48;;;0.30;;
38717;SDS011;24468;52.128;9.278;2023-05-10T06:31:27;0.15;;;0.10;;
38717;SDS011;24468;52.128;9.278;2023-05-10T06:33:52;0.98;;;0.70;;
38717;SDS011;24468;52.128;9.278;2023-05-10T06:36:18;0.65;;;0.57;;
38717;SDS011;24468;52.128;9.278;2023-05-10T06:38:43;1.08;;;1.08;;
38717;SDS011;24468;52.128;9.278;2023-05-10T06:41:09;0.68;;;0.20;;
38717;SDS011;24468;52.128;9.278;2023-05-10T06:43:35;0.10;;;0.10;;
38717;SDS011;24468;52.128;9.278;2023-05-10T06:46:01;0.35;;;0.20;;
38717;SDS011;24468;52.128;9.278;2023-05-10T06:48:27;0.30;;;0.10;;
38717;SDS011;24468;52.128;9.278;2023-05-10T06:50:53;0.52;;;0.00;;
38717;SDS011;24468;52.128;9.278;2023-05-10T06:53:18;1.42;;;0.20;;
38717;SDS011;24468;52.128;9.278;2023-05-10T06:55:44;0.00;;;0.00;;
38717;SDS011;24468;52.128;9.278;2023-05-10T06:58:09;0.25;;;0.00;;
38717;SDS011;24468;52.128;9.278;2023-05-10T07:00:35;0.47;;;0.20;;
38717;SDS011;24468;52.128;9.278;2023-05-10T07:03:05;0.10;;;0.10;;
38717;SDS011;24468;52.128;9.278;2023-05-10T07:05:31;0.00;;;0.00;;
38717;SDS011;24468;52.128;9.278;2023-05-10T07:07:56;0.08;;;0.05;;
38717;SDS011;24468;52.128;9.278;2023-05-10T07:10:22;1.48;;;0.68;;
38717;SDS011;24468;52.128;9.278;2023-05-10T07:12:47;0.00;;;0.00;;
38717;SDS011;24468;52.128;9.278;2023-05-10T07:15:13;0.00;;;0.00;;
38717;SDS011;24468;52.128;9.278;2023-05-10T07:17:38;0.08;;;0.00;;
38717;SDS011;24468;52.128;9.278;2023-05-10T07:20:04;0.68;;;0.20;;
38717;SDS011;24468;52.128;9.278;2023-05-10T07:22:31;0.10;;;0.10;;
38717;SDS011;24468;52.128;9.278;2023-05-10T07:24:56;0.20;;;0.20;;
38717;SDS011;24468;52.128;9.278;2023-05-10T07:27:22;0.10;;;0.10;;
38717;SDS011;24468;52.128;9.278;2023-05-10T07:29:47;0.10;;;0.10;;
38717;SDS011;24468;52.128;9.278;2023-05-10T07:32:13;0.35;;;0.15;;
38717;SDS011;24468;52.128;9.278;2023-05-10T07:34:39;0.25;;;0.15;;
38717;SDS011;24468;52.128;9.278;2023-05-10T07:37:04;0.15;;;0.10;;
38717;SDS011;24468;52.128;9.278;2023-05-10T07:39:31;0.40;;;0.20;;
38717;SDS011;24468;52.128;9.278;2023-05-10T07:41:56;0.38;;;0.13;;
38717;SDS011;24468;52.128;9.278;2023-05-10T07:44:22;0.00;;;0.00;;
38717;SDS011;24468;52.128;9.278;2023-05-10T07:46:48;0.15;;;0.10;;
38717;SDS011;24468;52.128;9.278;2023-05-10T07:49:13;0.20;;;0.10;;
38717;SDS011;24468;52.128;9.278;2023-05-10T07:51:39;0.22;;;0.10;;
38717;SDS011;24468;52.128;9.278;2023-05-10T07:54:05;2.83;;;1.05;;
38717;SDS011;24468;52.128;9.278;2023-05-10T07:56:31;0.45;;;0.30;;
38717;SDS011;24468;52.128;9.278;2023-05-10T07:59:00;0.70;;;0.10;;
38717;SDS011;24468;52.128;9.278;2023-05-10T08:01:32;0.30;;;0.10;;
38717;SDS011;24468;52.128;9.278;2023-05-10T08:03:59;0.20;;;0.10;;
38717;SDS011;24468;52.128;9.278;2023-05-10T08:06:25;1.27;;;0.20;;
38717;SDS011;24468;52.128;9.278;2023-05-10T08:08:54;0.20;;;0.10;;
38717;SDS011;24468;52.128;9.278;2023-05-10T08:11:20;1.58;;;0.20;;
38717;SDS011;24468;52.128;9.278;2023-05-10T08:13:46;0.80;;;0.40;;
38717;SDS011;24468;52.128;9.278;2023-05-10T08:16:13;0.22;;;0.20;;
38717;SDS011;24468;52.128;9.278;2023-05-10T08:18:39;0.90;;;0.30;;
38717;SDS011;24468;52.128;9.278;2023-05-10T08:21:05;1.05;;;0.50;;
38717;SDS011;24468;52.128;9.278;2023-05-10T08:23:31;1.02;;;0.50;;
38717;SDS011;24468;52.128;9.278;2023-05-10T08:25:56;0.57;;;0.40;;
38717;SDS011;24468;52.128;9.278;2023-05-10T08:28:22;0.73;;;0.40;;
38717;SDS011;24468;52.128;9.278;2023-05-10T08:30:49;0.73;;;0.55;;
38717;SDS011;24468;52.128;9.278;2023-05-10T08:33:15;1.15;;;0.52;;
38717;SDS011;24468;52.128;9.278;2023-05-10T08:35:40;1.40;;;0.40;;
38717;SDS011;24468;52.128;9.278;2023-05-10T08:38:06;0.68;;;0.40;;
38717;SDS011;24468;52.128;9.278;2023-05-10T08:40:31;0.82;;;0.60;;
38717;SDS011;24468;52.128;9.278;2023-05-10T08:43:04;0.85;;;0.63;;
38717;SDS011;24468;52.128;9.278;2023-05-10T08:45:33;1.80;;;0.68;;
38717;SDS011;24468;52.128;9.278;2023-05-10T08:50:36;2.42;;;0.60;;
38717;SDS011;24468;52.128;9.278;2023-05-10T08:53:13;2.08;;;0.63;;
38717;SDS011;24468;52.128;9.278;2023-05-10T08:55:41;1.10;;;0.68;;
38717;SDS011;24468;52.128;9.278;2023-05-10T08:58:08;0.88;;;0.55;;
38717;SDS011;24468;52.128;9.278;2023-05-10T09:00:34;1.63;;;0.50;;
38717;SDS011;24468;52.128;9.278;2023-05-10T09:03:02;0.70;;;0.55;;
38717;SDS011;24468;52.128;9.278;2023-05-10T09:05:29;1.63;;;0.90;;
38717;SDS011;24468;52.128;9.278;2023-05-10T09:07:55;1.48;;;0.77;;
38717;SDS011;24468;52.128;9.278;2023-05-10T09:10:21;2.08;;;1.05;;
38717;SDS011;24468;52.128;9.278;2023-05-10T09:12:48;2.35;;;0.70;;
38717;SDS011;24468;52.128;9.278;2023-05-10T09:15:15;3.00;;;1.60;;
38717;SDS011;24468;52.128;9.278;2023-05-10T09:17:41;2.15;;;1.30;;
38717;SDS011;24468;52.128;9.278;2023-05-10T09:20:08;2.13;;;0.90;;
38717;SDS011;24468;52.128;9.278;2023-05-10T09:22:34;3.95;;;1.10;;
38717;SDS011;24468;52.128;9.278;2023-05-10T09:25:10;3.60;;;0.98;;
38717;SDS011;24468;52.128;9.278;2023-05-10T09:27:41;2.70;;;1.65;;
38717;SDS011;24468;52.128;9.278;2023-05-10T09:30:10;2.00;;;1.30;;
38717;SDS011;24468;52.128;9.278;2023-05-10T09:32:44;4.70;;;1.75;;
38717;SDS011;24468;52.128;9.278;2023-05-10T09:37:43;2.70;;;1.70;;
38717;SDS011;24468;52.128;9.278;2023-05-10T09:40:16;2.65;;;1.38;;
38717;SDS011;24468;52.128;9.278;2023-05-10T09:42:50;3.40;;;1.60;;
38717;SDS011;24468;52.128;9.278;2023-05-10T09:45:16;2.22;;;1.55;;
38717;SDS011;24468;52.128;9.278;2023-05-10T09:47:41;3.40;;;1.58;;
38717;SDS011;24468;52.128;9.278;2023-05-10T09:50:07;4.82;;;1.50;;
38717;SDS011;24468;52.128;9.278;2023-05-10T09:52:52;3.35;;;2.00;;
38717;SDS011;24468;52.128;9.278;2023-05-10T09:55:24;2.72;;;1.98;;
38717;SDS011;24468;52.128;9.278;2023-05-10T09:58:02;3.40;;;1.70;;
38717;SDS011;24468;52.128;9.278;2023-05-10T10:00:33;3.03;;;2.20;;
38717;SDS011;24468;52.128;9.278;2023-05-10T10:03:16;3.13;;;2.20;;
38717;SDS011;24468;52.128;9.278;2023-05-10T10:05:44;3.15;;;2.10;;
38717;SDS011;24468;52.128;9.278;2023-05-10T10:08:12;3.03;;;2.10;;
38717;SDS011;24468;52.128;9.278;2023-05-10T10:10:39;4.72;;;2.20;;
38717;SDS011;24468;52.128;9.278;2023-05-10T10:13:06;3.47;;;1.90;;
38717;SDS011;24468;52.128;9.278;2023-05-10T10:15:35;2.92;;;2.22;;
38717;SDS011;24468;52.128;9.278;2023-05-10T10:18:01;3.83;;;2.65;;
38717;SDS011;24468;52.128;9.278;2023-05-10T10:20:28;2.90;;;2.53;;
38717;SDS011;24468;52.128;9.278;2023-05-10T10:22:54;2.40;;;2.00;;
38717;SDS011;24468;52.128;9.278;2023-05-10T10:25:20;3.55;;;2.55;;
38717;SDS011;24468;52.128;9.278;2023-05-10T10:36:06;5.50;;;3.20;;
38717;SDS011;24468;52.128;9.278;2023-05-10T10:38:35;2.70;;;2.50;;
38717;SDS011;24468;52.128;9.278;2023-05-10T10:44:22;3.30;;;2.80;;
38717;SDS011;24468;52.128;9.278;2023-05-10T10:50:06;20.52;;;13.88;;
38717;SDS011;24468;52.128;9.278;2023-05-10T10:55:01;6.10;;;4.25;;
38717;SDS011;24468;52.128;9.278;2023-05-10T11:00:18;5.50;;;4.18;;
38717;SDS011;24468;52.128;9.278;2023-05-10T11:05:50;4.18;;;3.13;;
38717;SDS011;24468;52.128;9.278;2023-05-10T11:08:27;5.35;;;3.60;;
38717;SDS011;24468;52.128;9.278;2023-05-10T11:19:01;3.72;;;3.20;;
38717;SDS011;24468;52.128;9.278;2023-05-10T11:21:32;3.45;;;2.47;;
38717;SDS011;24468;52.128;9.278;2023-05-10T11:23:59;2.70;;;2.40;;
38717;SDS011;24468;52.128;9.278;2023-05-10T11:26:31;2.65;;;2.00;;
38717;SDS011;24468;52.128;9.278;2023-05-10T11:28:58;2.38;;;2.17;;
38717;SDS011;24468;52.128;9.278;2023-05-10T11:31:25;2.97;;;2.10;;
38717;SDS011;24468;52.128;9.278;2023-05-10T11:33:52;5.25;;;1.77;;
38717;SDS011;24468;52.128;9.278;2023-05-10T11:36:21;2.70;;;1.90;;
38717;SDS011;24468;52.128;9.278;2023-05-10T11:38:50;4.05;;;2.22;;
38717;SDS011;24468;52.128;9.278;2023-05-10T11:41:17;2.20;;;2.00;;
38717;SDS011;24468;52.128;9.278;2023-05-10T11:43:46;3.90;;;2.00;;
38717;SDS011;24468;52.128;9.278;2023-05-10T11:46:13;5.25;;;2.33;;
38717;SDS011;24468;52.128;9.278;2023-05-10T11:48:39;2.85;;;2.38;;
38717;SDS011;24468;52.128;9.278;2023-05-10T11:51:06;3.17;;;2.55;;
38717;SDS011;24468;52.128;9.278;2023-05-10T11:53:33;5.95;;;2.92;;
38717;SDS011;24468;52.128;9.278;2023-05-10T11:56:03;4.03;;;2.80;;
38717;SDS011;24468;52.128;9.278;2023-05-10T11:58:30;4.05;;;2.55;;
38717;SDS011;24468;52.128;9.278;2023-05-10T12:00:57;6.72;;;2.67;;
38717;SDS011;24468;52.128;9.278;2023-05-10T12:03:24;4.63;;;2.30;;
38717;SDS011;24468;52.128;9.278;2023-05-10T12:05:50;5.15;;;3.65;;
38717;SDS011;24468;52.128;9.278;2023-05-10T12:08:20;3.45;;;2.45;;
38717;SDS011;24468;52.128;9.278;2023-05-10T12:10:47;3.20;;;2.90;;
38717;SDS011;24468;52.128;9.278;2023-05-10T12:13:13;3.65;;;3.17;;
38717;SDS011;24468;52.128;9.278;2023-05-10T12:15:40;5.20;;;4.05;;
38717;SDS011;24468;52.128;9.278;2023-05-10T12:18:10;5.43;;;4.28;;
38717;SDS011;24468;52.128;9.278;2023-05-10T12:20:38;3.42;;;3.05;;
38717;SDS011;24468;52.128;9.278;2023-05-10T12:23:04;6.25;;;3.20;;
38717;SDS011;24468;52.128;9.278;2023-05-10T12:25:31;4.97;;;2.80;;
38717;SDS011;24468;52.128;9.278;2023-05-10T12:28:02;3.85;;;3.00;;
38717;SDS011;24468;52.128;9.278;2023-05-10T12:30:31;4.30;;;3.90;;
38717;SDS011;24468;52.128;9.278;2023-05-10T12:33:00;5.68;;;3.42;;
38717;SDS011;24468;52.128;9.278;2023-05-10T12:35:31;5.93;;;4.25;;
38717;SDS011;24468;52.128;9.278;2023-05-10T12:37:57;7.45;;;4.18;;
38717;SDS011;24468;52.128;9.278;2023-05-10T12:40:23;4.65;;;3.45;;
38717;SDS011;24468;52.128;9.278;2023-05-10T12:42:49;5.10;;;3.50;;
38717;SDS011;24468;52.128;9.278;2023-05-10T12:45:15;3.90;;;2.90;;
38717;SDS011;24468;52.128;9.278;2023-05-10T12:47:43;2.58;;;2.38;;
38717;SDS011;24468;52.128;9.278;2023-05-10T12:50:08;3.90;;;2.80;;
38717;SDS011;24468;52.128;9.278;2023-05-10T12:52:34;4.05;;;3.13;;
38717;SDS011;24468;52.128;9.278;2023-05-10T12:55:00;3.30;;;3.00;;
38717;SDS011;24468;52.128;9.278;2023-05-10T12:57:29;6.35;;;3.90;;
38717;SDS011;24468;52.128;9.278;2023-05-10T12:59:55;6.75;;;3.53;;
38717;SDS011;24468;52.128;9.278;2023-05-10T13:02:21;5.30;;;4.03;;
38717;SDS011;24468;52.128;9.278;2023-05-10T13:04:47;4.47;;;4.07;;
38717;SDS011;24468;52.128;9.278;2023-05-10T13:07:13;3.78;;;3.25;;
38717;SDS011;24468;52.128;9.278;2023-05-10T13:09:39;4.03;;;3.45;;
38717;SDS011;24468;52.128;9.278;2023-05-10T13:12:05;3.88;;;3.47;;
38717;SDS011;24468;52.128;9.278;2023-05-10T13:14:30;5.05;;;3.53;;
38717;SDS011;24468;52.128;9.278;2023-05-10T13:16:56;4.97;;;3.92;;
38717;SDS011;24468;52.128;9.278;2023-05-10T13:19:22;5.40;;;4.13;;
38717;SDS011;24468;52.128;9.278;2023-05-10T13:21:47;3.30;;;2.65;;
38717;SDS011;24468;52.128;9.278;2023-05-10T13:24:13;6.00;;;3.30;;
38717;SDS011;24468;52.128;9.278;2023-05-10T13:26:41;4.47;;;3.40;;
38717;SDS011;24468;52.128;9.278;2023-05-10T13:29:07;4.20;;;3.08;;
38717;SDS011;24468;52.128;9.278;2023-05-10T13:31:33;3.88;;;3.20;;
38717;SDS011;24468;52.128;9.278;2023-05-10T13:34:00;4.18;;;3.25;;
38717;SDS011;24468;52.128;9.278;2023-05-10T13:36:25;3.63;;;3.33;;
38717;SDS011;24468;52.128;9.278;2023-05-10T13:38:51;6.93;;;4.03;;
38717;SDS011;24468;52.128;9.278;2023-05-10T13:41:16;3.53;;;3.22;;
38717;SDS011;24468;52.128;9.278;2023-05-10T13:43:42;4.55;;;3.15;;
38717;SDS011;24468;52.128;9.278;2023-05-10T13:46:08;4.18;;;3.22;;
38717;SDS011;24468;52.128;9.278;2023-05-10T13:48:33;7.53;;;3.78;;
38717;SDS011;24468;52.128;9.278;2023-05-10T13:50:59;4.90;;;3.42;;
38717;SDS011;24468;52.128;9.278;2023-05-10T13:53:24;5.32;;;3.25;;
38717;SDS011;24468;52.128;9.278;2023-05-10T13:55:50;3.80;;;3.50;;
38717;SDS011;24468;52.128;9.278;2023-05-10T13:58:15;5.28;;;3.67;;
38717;SDS011;24468;52.128;9.278;2023-05-10T14:00:41;4.82;;;2.70;;
38717;SDS011;24468;52.128;9.278;2023-05-10T14:03:06;6.22;;;3.38;;
38717;SDS011;24468;52.128;9.278;2023-05-10T14:05:34;6.30;;;3.10;;
38717;SDS011;24468;52.128;9.278;2023-05-10T14:07:59;4.22;;;3.17;;
38717;SDS011;24468;52.128;9.278;2023-05-10T14:10:25;4.68;;;3.33;;
38717;SDS011;24468;52.128;9.278;2023-05-10T14:12:50;5.30;;;4.05;;
38717;SDS011;24468;52.128;9.278;2023-05-10T14:15:16;4.75;;;4.22;;
38717;SDS011;24468;52.128;9.278;2023-05-10T14:17:41;7.03;;;3.90;;
38717;SDS011;24468;52.128;9.278;2023-05-10T14:20:07;4.10;;;3.70;;
38717;SDS011;24468;52.128;9.278;2023-05-10T14:22:33;4.63;;;4.05;;
38717;SDS011;24468;52.128;9.278;2023-05-10T14:24:59;5.88;;;3.33;;
38717;SDS011;24468;52.128;9.278;2023-05-10T14:27:25;4.60;;;3.50;;
38717;SDS011;24468;52.128;9.278;2023-05-10T14:29:51;4.40;;;4.00;;
38717;SDS011;24468;52.128;9.278;2023-05-10T14:32:16;4.53;;;3.70;;
38717;SDS011;24468;52.128;9.278;2023-05-10T14:34:42;4.78;;;4.25;;
38717;SDS011;24468;52.128;9.278;2023-05-10T14:37:09;4.13;;;3.72;;
38717;SDS011;24468;52.128;9.278;2023-05-10T14:39:35;7.78;;;4.75;;
38717;SDS011;24468;52.128;9.278;2023-05-10T14:42:01;7.55;;;4.75;;
38717;SDS011;24468;52.128;9.278;2023-05-10T14:44:27;4.28;;;3.75;;
38717;SDS011;24468;52.128;9.278;2023-05-10T14:46:53;4.20;;;3.80;;
38717;SDS011;24468;52.128;9.278;2023-05-10T14:49:18;5.40;;;4.90;;
38717;SDS011;24468;52.128;9.278;2023-05-10T14:51:47;7.10;;;4.68;;
38717;SDS011;24468;52.128;9.278;2023-05-10T14:54:13;5.13;;;4.00;;
38717;SDS011;24468;52.128;9.278;2023-05-10T14:56:39;4.35;;;3.95;;
38717;SDS011;24468;52.128;9.278;2023-05-10T14:59:06;4.82;;;4.35;;
38717;SDS011;24468;52.128;9.278;2023-05-10T15:01:32;5.20;;;4.40;;
38717;SDS011;24468;52.128;9.278;2023-05-10T15:03:59;5.15;;;4.63;;
38717;SDS011;24468;52.128;9.278;2023-05-10T15:06:30;4.47;;;4.07;;
38717;SDS011;24468;52.128;9.278;2023-05-10T15:11:22;5.97;;;4.50;;
38717;SDS011;24468;52.128;9.278;2023-05-10T15:13:48;6.72;;;4.43;;
38717;SDS011;24468;52.128;9.278;2023-05-10T15:16:13;5.90;;;3.88;;
38717;SDS011;24468;52.128;9.278;2023-05-10T15:18:39;6.70;;;3.85;;
38717;SDS011;24468;52.128;9.278;2023-05-10T15:21:04;5.40;;;4.05;;
38717;SDS011;24468;52.128;9.278;2023-05-10T15:23:30;4.65;;;4.25;;
38717;SDS011;24468;52.128;9.278;2023-05-10T15:25:56;6.97;;;4.35;;
38717;SDS011;24468;52.128;9.278;2023-05-10T15:28:22;8.18;;;5.43;;
38717;SDS011;24468;52.128;9.278;2023-05-10T15:30:48;36.28;;;8.45;;
38717;SDS011;24468;52.128;9.278;2023-05-10T15:33:13;19.17;;;9.20;;
38717;SDS011;24468;52.128;9.278;2023-05-10T15:35:39;18.38;;;7.30;;
38717;SDS011;24468;52.128;9.278;2023-05-10T15:38:05;10.32;;;6.10;;
38717;SDS011;24468;52.128;9.278;2023-05-10T15:40:31;15.18;;;6.55;;